Time;durP1;ratioP1;P1;durP2;ratioP2;P2;SDS_P1;SDS_P2;PMS_P1;PMS_P2;Temp;Humidity;BMP_temperature;BMP_pressure;BME280_temperature;BME280_humidity;BME280_pressure;Samples;Min_cycle;Max_cycle;Signal;HPM_P1;HPM_P2
2024/01/02 00:01:50;;;;;;;35.53;20.73;;;6.40;56.80;;;;;;5123278;27;20286;-66
2024/01/02 00:04:18;;;;;;;37.77;20.90;;;6.40;55.60;;;;;;5116542;27;20777;-67
2024/01/02 00:06:48;;;;;;;40.27;20.17;;;6.40;55.00;;;;;;5122042;27;20229;-67
2024/01/02 00:09:17;;;;;;;33.60;19.20;;;6.40;55.70;;;;;;5106967;27;20240;-67
2024/01/02 00:11:46;;;;;;;41.03;20.07;;;6.50;55.30;;;;;;5125269;27;20210;-67
2024/01/02 00:14:15;;;;;;;35.60;19.77;;;6.50;55.10;;;;;;5111160;27;20236;-67
2024/01/02 00:16:43;;;;;;;34.23;20.17;;;6.50;54.80;;;;;;5120661;27;20226;-66
2024/01/02 00:19:12;;;;;;;40.00;20.27;;;6.40;55.00;;;;;;5100885;27;20231;-68
2024/01/02 00:21:40;;;;;;;35.93;19.10;;;6.50;54.70;;;;;;5127429;27;20304;-67
2024/01/02 00:24:09;;;;;;;35.03;19.47;;;6.60;54.60;;;;;;5122649;27;20262;-68
2024/01/02 00:26:37;;;;;;;33.80;18.63;;;6.50;54.90;;;;;;5122849;27;20278;-67
2024/01/02 00:29:07;;;;;;;35.77;19.27;;;6.50;55.50;;;;;;5096664;27;20230;-67
2024/01/02 00:31:36;;;;;;;40.33;20.93;;;6.60;55.10;;;;;;5122557;27;20593;-66
2024/01/02 00:34:05;;;;;;;39.27;20.77;;;6.60;66.20;;;;;;5105420;27;20227;-66
2024/01/02 00:36:33;;;;;;;37.03;19.43;;;6.60;54.10;;;;;;5122750;27;20869;-67
2024/01/02 00:39:02;;;;;;;35.20;19.07;;;6.60;54.00;;;;;;5105048;27;20589;-67
2024/01/02 00:41:31;;;;;;;37.70;19.60;;;6.60;55.10;;;;;;5099865;28;20881;-65
2024/01/02 00:43:59;;;;;;;36.30;19.43;;;6.60;66.60;;;;;;5117051;27;20470;-66
2024/01/02 00:46:29;;;;;;;37.80;18.80;;;6.60;54.60;;;;;;5112431;27;20751;-66
2024/01/02 00:48:58;;;;;;;33.60;18.70;;;6.50;54.10;;;;;;5104447;27;20237;-67
2024/01/02 00:51:27;;;;;;;35.70;18.33;;;6.60;54.90;;;;;;5116093;27;20301;-67
2024/01/02 00:53:56;;;;;;;31.10;17.63;;;6.60;54.80;;;;;;5120712;27;20218;-66
2024/01/02 00:56:24;;;;;;;33.40;18.90;;;6.60;54.00;;;;;;5103703;27;20242;-67
2024/01/02 00:58:53;;;;;;;32.53;17.60;;;6.60;55.00;;;;;;5104234;27;20242;-67
2024/01/02 01:01:22;;;;;;;32.23;16.83;;;6.50;54.30;;;;;;5104288;27;20710;-67
2024/01/02 01:03:52;;;;;;;32.23;17.83;;;6.60;55.10;;;;;;5111630;27;20792;-67
2024/01/02 01:06:21;;;;;;;33.60;17.57;;;6.60;55.40;;;;;;5119081;27;20219;-67
2024/01/02 01:08:49;;;;;;;32.03;18.23;;;6.60;54.60;;;;;;5125880;27;20267;-68
2024/01/02 01:11:18;;;;;;;33.67;17.67;;;6.60;54.10;;;;;;5103366;27;20221;-67
2024/01/02 01:13:47;;;;;;;36.33;18.40;;;6.70;55.20;;;;;;5120685;27;20225;-66
2024/01/02 01:16:15;;;;;;;33.93;18.07;;;6.60;55.60;;;;;;5103907;27;20258;-66
2024/01/02 01:18:44;;;;;;;38.53;19.13;;;6.60;53.90;;;;;;5117203;27;20229;-67
2024/01/02 01:21:19;;;;;;;35.83;18.07;;;6.60;54.70;;;;;;5115530;27;20220;-67
2024/01/02 01:23:47;;;;;;;34.10;18.13;;;6.70;55.30;;;;;;5119800;27;20696;-67
2024/01/02 01:26:16;;;;;;;36.17;18.57;;;6.70;54.30;;;;;;5107432;27;20225;-67
2024/01/02 01:28:44;;;;;;;31.50;17.97;;;6.60;53.60;;;;;;5118450;27;20217;-68
2024/01/02 01:31:13;;;;;;;38.03;19.27;;;6.60;54.20;;;;;;5107092;27;20238;-66
2024/01/02 01:33:42;;;;;;;34.37;18.33;;;6.70;54.00;;;;;;5098906;27;20375;-66
2024/01/02 01:36:10;;;;;;;33.13;17.97;;;6.70;53.60;;;;;;5116271;27;20232;-67
2024/01/02 01:38:40;;;;;;;34.20;18.00;;;6.70;54.40;;;;;;5101382;27;20311;-63
2024/01/02 01:41:09;;;;;;;35.67;18.47;;;6.70;54.50;;;;;;5126865;27;20233;-66
2024/01/02 01:43:38;;;;;;;35.70;19.13;;;6.80;53.40;;;;;;5107186;27;20339;-66
2024/01/02 01:46:08;;;;;;;30.42;17.45;;;6.80;54.60;;;;;;5118466;27;20221;-67
2024/01/02 01:48:38;;;;;;;33.17;17.50;;;6.80;53.70;;;;;;5109980;27;20211;-67
2024/01/02 01:51:08;;;;;;;31.40;17.37;;;6.80;54.20;;;;;;5117536;27;20796;-68
2024/01/02 01:53:38;;;;;;;31.47;16.43;;;6.80;53.60;;;;;;5101985;27;20709;-67
2024/01/02 01:56:09;;;;;;;37.00;16.77;;;6.80;53.40;;;;;;5114151;27;20230;-67
2024/01/02 01:58:37;;;;;;;32.27;16.20;;;6.80;53.40;;;;;;5103499;27;20558;-67
2024/01/02 02:01:06;;;;;;;30.57;15.43;;;6.80;53.10;;;;;;5095536;27;20229;-67
2024/01/02 02:03:35;;;;;;;33.23;15.83;;;6.70;54.20;;;;;;5100816;27;20309;-67
2024/01/02 02:06:04;;;;;;;32.20;16.73;;;6.70;54.60;;;;;;5101072;27;20844;-68
2024/01/02 02:08:33;;;;;;;28.77;15.13;;;6.70;53.70;;;;;;5099004;27;20281;-67
2024/01/02 02:11:03;;;;;;;27.47;15.80;;;6.80;53.50;;;;;;5102501;27;20293;-66
2024/01/02 02:13:33;;;;;;;28.03;15.40;;;6.70;54.40;;;;;;5105407;27;20712;-67
2024/01/02 02:16:03;;;;;;;29.13;15.83;;;6.80;54.90;;;;;;5116812;27;20298;-67
2024/01/02 02:18:31;;;;;;;30.37;15.03;;;6.80;54.20;;;;;;5098100;27;20221;-66
2024/01/02 02:21:00;;;;;;;28.93;14.97;;;6.90;54.50;;;;;;5122447;27;20222;-68
2024/01/02 02:23:30;;;;;;;28.40;14.80;;;6.80;53.90;;;;;;5103253;27;20245;-66
2024/01/02 02:25:59;;;;;;;27.70;15.10;;;6.80;54.30;;;;;;5124046;27;20344;-66
2024/01/02 02:28:28;;;;;;;30.47;14.97;;;6.80;54.70;;;;;;5102800;27;20305;-66
2024/01/02 02:30:56;;;;;;;28.50;14.53;;;6.70;54.70;;;;;;5116967;27;20241;-66
2024/01/02 02:33:25;;;;;;;28.97;15.17;;;6.80;55.10;;;;;;5105701;27;20920;-66
2024/01/02 02:35:54;;;;;;;27.57;14.17;;;6.70;54.50;;;;;;5120461;27;20226;-67
2024/01/02 02:38:23;;;;;;;34.80;14.97;;;6.80;55.00;;;;;;5104945;27;20257;-65
2024/01/02 02:40:58;;;;;;;25.50;14.63;;;6.80;66.70;;;;;;5105495;27;20233;-66
2024/01/02 02:43:26;;;;;;;28.17;14.73;;;6.70;55.00;;;;;;5117606;27;20228;-67
2024/01/02 02:45:55;;;;;;;25.37;15.30;;;6.70;55.10;;;;;;5119073;27;20218;-66
2024/01/02 02:48:24;;;;;;;29.70;14.43;;;6.80;54.50;;;;;;5122273;27;20695;-67
2024/01/02 02:50:52;;;;;;;28.63;15.20;;;6.80;55.10;;;;;;5121893;27;20230;-66
2024/01/02 02:53:21;;;;;;;26.93;14.50;;;6.80;55.60;;;;;;5121430;27;20243;-66
2024/01/02 02:55:49;;;;;;;31.23;14.73;;;6.80;56.40;;;;;;5122672;27;20731;-66
2024/01/02 02:58:20;;;;;;;25.80;14.93;;;6.90;55.90;;;;;;5120587;27;20262;-67
2024/01/02 03:00:48;;;;;;;26.20;14.43;;;7.00;55.80;;;;;;5100646;27;20229;-67
2024/01/02 03:03:17;;;;;;;27.20;13.70;;;6.90;54.80;;;;;;5119282;27;20222;-67
2024/01/02 03:05:45;;;;;;;24.07;13.70;;;6.90;54.40;;;;;;5102888;27;20218;-67
2024/01/02 03:08:14;;;;;;;22.47;13.37;;;6.90;54.90;;;;;;5117858;27;20305;-67
2024/01/02 03:10:43;;;;;;;24.23;12.63;;;6.90;55.90;;;;;;5110866;27;20230;-67
2024/01/02 03:13:12;;;;;;;23.67;12.77;;;7.00;55.20;;;;;;5115973;27;21008;-67
2024/01/02 03:15:42;;;;;;;26.03;13.53;;;6.90;55.30;;;;;;5114708;27;20782;-67
2024/01/02 03:18:10;;;;;;;26.47;13.03;;;7.00;55.40;;;;;;5116025;27;20263;-67
2024/01/02 03:20:39;;;;;;;22.43;12.13;;;7.00;54.90;;;;;;5098083;27;20391;-67
2024/01/02 03:23:08;;;;;;;23.80;12.70;;;6.90;54.80;;;;;;5111532;27;20214;-67
2024/01/02 03:25:37;;;;;;;24.40;12.30;;;6.90;55.20;;;;;;5122169;27;20307;-67
2024/01/02 03:28:06;;;;;;;24.80;12.03;;;6.90;55.30;;;;;;5102265;27;20317;-66
2024/01/02 03:30:37;;;;;;;22.37;11.27;;;6.90;55.10;;;;;;5119838;27;20223;-66
2024/01/02 03:33:07;;;;;;;24.67;12.00;;;6.90;56.20;;;;;;5104593;27;20279;-66
2024/01/02 03:35:36;;;;;;;19.93;11.03;;;7.00;54.70;;;;;;5118478;27;20217;-65
2024/01/02 03:38:04;;;;;;;26.13;11.97;;;7.00;54.40;;;;;;5119930;27;20226;-65
2024/01/02 03:40:33;;;;;;;22.70;11.30;;;7.10;54.70;;;;;;5099524;27;20250;-66
2024/01/02 03:43:01;;;;;;;23.53;11.57;;;7.10;54.50;;;;;;5120243;27;20229;-65
2024/01/02 03:45:30;;;;;;;20.30;11.27;;;7.00;53.50;;;;;;5120722;27;20218;-65
2024/01/02 03:47:59;;;;;;;22.67;11.57;;;6.90;54.10;;;;;;5116726;27;20317;-66
2024/01/02 03:50:29;;;;;;;22.97;12.13;;;6.80;55.50;;;;;;5114231;27;20243;-67
2024/01/02 03:52:57;;;;;;;23.80;11.93;;;6.90;55.40;;;;;;5123330;28;20221;-67
2024/01/02 03:55:26;;;;;;;23.17;12.07;;;7.00;67.70;;;;;;5110836;27;20338;-67
2024/01/02 03:57:55;;;;;;;24.07;11.90;;;7.00;54.70;;;;;;5102253;28;20249;-67
2024/01/02 04:00:23;;;;;;;21.50;11.47;;;7.00;55.70;;;;;;5123154;27;20230;-67
2024/01/02 04:02:52;;;;;;;24.70;13.17;;;7.00;54.90;;;;;;5116945;27;20219;-68
2024/01/02 04:05:21;;;;;;;24.27;12.00;;;7.00;55.10;;;;;;5116334;27;20229;-67
2024/01/02 04:07:51;;;;;;;25.27;11.87;;;7.00;54.50;;;;;;5121184;28;20710;-67
2024/01/02 04:10:20;;;;;;;26.13;12.87;;;7.10;54.30;;;;;;5117215;27;20221;-67
2024/01/02 04:12:48;;;;;;;22.37;12.73;;;7.00;55.00;;;;;;5121960;28;20235;-66
2024/01/02 04:15:17;;;;;;;24.83;12.77;;;7.00;66.50;;;;;;5119702;27;20231;-65
2024/01/02 04:17:45;;;;;;;23.23;12.80;;;7.00;55.20;;;;;;5112418;27;20218;-67
2024/01/02 04:20:14;;;;;;;23.67;13.17;;;6.90;56.10;;;;;;5091990;28;20248;-67
2024/01/02 04:22:42;;;;;;;22.97;12.13;;;7.00;55.00;;;;;;5111749;27;20215;-67
2024/01/02 04:25:12;;;;;;;20.43;12.40;;;7.00;55.00;;;;;;5120169;27;20256;-67
2024/01/02 04:27:42;;;;;;;26.20;11.87;;;7.10;55.10;;;;;;5097438;28;20226;-66
2024/01/02 04:30:13;;;;;;;24.43;13.00;;;7.00;54.80;;;;;;5117950;27;20222;-66
2024/01/02 04:32:41;;;;;;;23.77;12.47;;;7.00;55.50;;;;;;5102781;28;20663;-66
2024/01/02 04:35:10;;;;;;;21.13;12.03;;;7.00;55.20;;;;;;5111915;28;20230;-66
2024/01/02 04:37:39;;;;;;;24.30;12.37;;;7.00;55.50;;;;;;5098563;27;20227;-66
2024/01/02 04:40:10;;;;;;;23.53;13.67;;;7.00;54.90;;;;;;5102269;27;20229;-66
2024/01/02 04:42:40;;;;;;;29.83;13.63;;;7.00;54.80;;;;;;5114101;27;20652;-66
2024/01/02 04:45:10;;;;;;;25.90;13.40;;;7.00;55.20;;;;;;5123442;27;20328;-67
2024/01/02 04:47:39;;;;;;;23.83;14.23;;;7.10;54.90;;;;;;5103443;27;20229;-66
2024/01/02 04:50:08;;;;;;;24.00;13.53;;;7.10;54.70;;;;;;5103145;27;20231;-67
2024/01/02 04:52:36;;;;;;;23.60;13.27;;;7.00;54.70;;;;;;5103934;27;20214;-67
2024/01/02 04:55:06;;;;;;;26.17;14.40;;;7.10;54.30;;;;;;5104801;27;20682;-66
2024/01/02 04:57:34;;;;;;;23.77;14.03;;;7.20;55.50;;;;;;5120625;27;20226;-68
2024/01/02 05:00:05;;;;;;;23.60;14.53;;;7.00;54.40;;;;;;5122755;27;20213;-66
2024/01/02 05:02:34;;;;;;;29.13;15.80;;;7.10;54.70;;;;;;5122801;27;20230;-65
2024/01/02 05:05:02;;;;;;;34.97;16.00;;;7.00;53.80;;;;;;5112024;27;20750;-66
2024/01/02 05:07:32;;;;;;;26.80;14.97;;;7.00;54.90;;;;;;5118837;27;20218;-66
2024/01/02 05:10:00;;;;;;;29.53;15.40;;;7.10;53.90;;;;;;5124543;27;20328;-66
2024/01/02 05:12:29;;;;;;;25.73;14.77;;;7.10;52.50;;;;;;5118808;27;20221;-66
2024/01/02 05:14:58;;;;;;;26.80;15.20;;;7.10;54.50;;;;;;5123816;27;20226;-65
2024/01/02 05:17:28;;;;;;;26.47;15.13;;;7.10;53.40;;;;;;5122698;27;20221;-67
2024/01/02 05:19:56;;;;;;;26.27;14.73;;;7.10;53.70;;;;;;5124619;27;20218;-65
2024/01/02 05:22:25;;;;;;;28.70;15.43;;;7.00;52.80;;;;;;5118704;27;20767;-66
2024/01/02 05:24:53;;;;;;;27.50;14.80;;;7.10;54.50;;;;;;5122104;27;20249;-67
2024/01/02 05:27:22;;;;;;;24.33;14.70;;;7.10;54.20;;;;;;5108520;27;20815;-65
2024/01/02 05:29:51;;;;;;;25.15;14.40;;;7.10;53.30;;;;;;5116773;27;20225;-66
2024/01/02 05:32:19;;;;;;;26.20;14.77;;;7.10;53.50;;;;;;5123142;27;20218;-67
2024/01/02 05:34:49;;;;;;;26.57;13.90;;;7.10;53.00;;;;;;5113509;27;20518;-66
2024/01/02 05:37:18;;;;;;;22.42;14.00;;;7.10;53.80;;;;;;5122301;27;20228;-66
2024/01/02 05:39:47;;;;;;;22.27;14.13;;;7.10;54.10;;;;;;5115482;27;20226;-66
2024/01/02 05:42:15;;;;;;;21.27;13.63;;;7.10;53.50;;;;;;5125082;27;20721;-65
2024/01/02 05:44:44;;;;;;;23.40;13.37;;;7.10;53.20;;;;;;5124687;27;20217;-66
2024/01/02 05:47:12;;;;;;;26.80;13.90;;;7.10;54.40;;;;;;5122336;27;20230;-66
2024/01/02 05:49:40;;;;;;;24.43;14.97;;;7.10;53.80;;;;;;5121067;27;20308;-67
2024/01/02 05:52:10;;;;;;;21.17;13.93;;;7.00;54.70;;;;;;5123506;27;20224;-65
2024/01/02 05:54:39;;;;;;;24.87;14.37;;;7.10;55.40;;;;;;5104597;27;20669;-66
2024/01/02 05:57:08;;;;;;;22.10;13.93;;;7.10;55.00;;;;;;5116162;27;20242;-67
2024/01/02 05:59:36;;;;;;;26.40;14.00;;;7.20;55.40;;;;;;5106585;27;20907;-66
2024/01/02 06:02:05;;;;;;;21.92;13.18;;;7.00;54.40;;;;;;5100555;27;20228;-66
2024/01/02 06:04:34;;;;;;;18.07;13.57;;;7.10;55.00;;;;;;5119283;27;20214;-66
2024/01/02 06:07:03;;;;;;;23.20;13.40;;;7.00;55.00;;;;;;5121525;27;20226;-66
2024/01/02 06:09:33;;;;;;;28.63;14.77;;;7.10;55.00;;;;;;5101247;27;20229;-65
2024/01/02 06:12:02;;;;;;;25.73;14.87;;;7.00;54.70;;;;;;5099606;27;20334;-64
2024/01/02 06:14:30;;;;;;;23.33;13.63;;;7.00;55.80;;;;;;5118491;27;20221;-65
2024/01/02 06:16:59;;;;;;;23.27;14.77;;;7.10;55.50;;;;;;5116566;27;20611;-65
2024/01/02 06:19:27;;;;;;;21.97;14.23;;;7.00;54.60;;;;;;5097943;28;20225;-65
2024/01/02 06:21:56;;;;;;;22.48;14.45;;;7.00;55.60;;;;;;5119819;27;20234;-65
2024/01/02 06:24:28;;;;;;;24.30;15.00;;;7.00;55.50;;;;;;5118907;27;20282;-66
2024/01/02 06:26:58;;;;;;;29.23;15.17;;;7.00;61.10;;;;;;5105303;27;20837;-65
2024/01/02 06:29:26;;;;;;;24.17;14.33;;;7.00;55.00;;;;;;5101470;27;20237;-66
2024/01/02 06:31:55;;;;;;;22.70;14.07;;;7.00;54.80;;;;;;5104723;27;20218;-66
2024/01/02 06:34:23;;;;;;;23.27;14.00;;;7.00;54.50;;;;;;5119729;27;20232;-66
2024/01/02 06:36:52;;;;;;;22.37;13.90;;;7.00;55.40;;;;;;5099159;27;20303;-66
2024/01/02 06:39:20;;;;;;;20.37;13.17;;;7.00;54.50;;;;;;5111705;27;20261;-66
2024/01/02 06:41:49;;;;;;;22.13;13.50;;;7.00;54.50;;;;;;5113734;27;20226;-65
2024/01/02 06:44:20;;;;;;;16.73;12.63;;;7.00;54.20;;;;;;5101063;27;20221;-66
2024/01/02 06:46:49;;;;;;;22.83;13.23;;;7.10;54.30;;;;;;5115203;27;20317;-67
2024/01/02 06:49:17;;;;;;;20.40;12.53;;;7.10;54.60;;;;;;5118207;27;20337;-66
2024/01/02 06:51:46;;;;;;;19.55;12.15;;;7.00;54.80;;;;;;5114519;27;20332;-68
2024/01/02 06:54:15;;;;;;;19.05;11.80;;;7.00;54.50;;;;;;5096430;27;20226;-68
2024/01/02 06:56:43;;;;;;;17.57;11.97;;;6.90;54.60;;;;;;5095123;27;20218;-66
2024/01/02 06:59:12;;;;;;;21.38;13.02;;;6.90;55.20;;;;;;5114487;27;20287;-67
2024/01/02 07:01:42;;;;;;;18.27;11.67;;;6.80;55.30;;;;;;5119231;27;20262;-65
2024/01/02 07:04:10;;;;;;;19.30;11.73;;;6.70;54.90;;;;;;5113690;27;20222;-66
2024/01/02 07:06:39;;;;;;;16.50;11.63;;;6.80;56.50;;;;;;5119324;27;20245;-67
2024/01/02 07:09:08;;;;;;;15.13;11.17;;;6.80;56.40;;;;;;5098359;28;20222;-69
2024/01/02 07:11:37;;;;;;;15.33;10.80;;;6.90;54.90;;;;;;5119479;27;20226;-69
2024/01/02 07:14:05;;;;;;;16.93;9.93;;;7.00;55.70;;;;;;5102979;27;20233;-68
2024/01/02 07:16:34;;;;;;;15.33;10.40;;;6.90;53.80;;;;;;5122517;27;20305;-68
2024/01/02 07:19:04;;;;;;;14.97;10.57;;;6.90;54.30;;;;;;5104528;27;20264;-69
2024/01/02 07:21:32;;;;;;;15.00;10.67;;;6.90;53.90;;;;;;5103046;27;20728;-69
2024/01/02 07:24:01;;;;;;;14.77;10.80;;;6.90;54.80;;;;;;5121049;27;20257;-69
2024/01/02 07:26:29;;;;;;;17.07;11.57;;;7.00;53.20;;;;;;5113469;27;20218;-69
2024/01/02 07:28:58;;;;;;;15.57;11.03;;;7.00;53.30;;;;;;5117897;27;20303;-69
2024/01/02 07:31:31;;;;;;;17.35;11.55;;;7.00;53.80;;;;;;5095044;27;20305;-68
2024/01/02 07:33:59;;;;;;;19.37;12.23;;;7.00;54.10;;;;;;5117360;27;20219;-68
2024/01/02 07:36:29;;;;;;;16.80;11.03;;;7.10;52.60;;;;;;5119289;27;20738;-69
2024/01/02 07:38:58;;;;;;;16.27;11.37;;;7.10;53.40;;;;;;5114702;27;20238;-71
2024/01/02 07:41:26;;;;;;;15.00;10.63;;;7.10;53.60;;;;;;5117491;27;20220;-68
2024/01/02 07:43:55;;;;;;;12.27;9.60;;;6.90;53.30;;;;;;5094790;27;20236;-69
2024/01/02 07:46:23;;;;;;;12.83;9.50;;;7.00;54.50;;;;;;5095894;28;20222;-69
2024/01/02 07:48:52;;;;;;;10.33;8.37;;;7.10;53.70;;;;;;5097683;28;20257;-69
2024/01/02 07:51:21;;;;;;;13.17;8.23;;;7.10;53.50;;;;;;5118442;28;20309;-69
2024/01/02 07:53:51;;;;;;;11.57;7.60;;;7.10;52.00;;;;;;5116581;27;20328;-69
2024/01/02 07:56:20;;;;;;;11.40;8.00;;;7.00;52.10;;;;;;5116911;28;20322;-68
2024/01/02 07:58:48;;;;;;;10.67;7.87;;;7.00;52.20;;;;;;5114644;28;20722;-69
2024/01/02 08:01:18;;;;;;;10.73;7.50;;;7.10;53.20;;;;;;5096863;28;20243;-69
2024/01/02 08:03:46;;;;;;;12.20;7.80;;;7.10;53.00;;;;;;5108871;27;20250;-69
2024/01/02 08:06:15;;;;;;;10.53;8.20;;;7.10;52.50;;;;;;5123923;27;20225;-69
2024/01/02 08:08:44;;;;;;;11.80;8.13;;;7.10;52.90;;;;;;5113106;27;20210;-69
2024/01/02 08:11:14;;;;;;;15.73;8.93;;;7.10;53.00;;;;;;5093863;27;20215;-69
2024/01/02 08:13:43;;;;;;;14.50;9.03;;;7.20;53.60;;;;;;5098879;27;20224;-69
2024/01/02 08:16:11;;;;;;;11.73;8.60;;;7.20;52.70;;;;;;5122175;27;20312;-69
2024/01/02 08:18:41;;;;;;;13.23;9.63;;;7.10;52.80;;;;;;5120795;27;20695;-69
2024/01/02 08:21:10;;;;;;;14.97;10.83;;;7.20;54.20;;;;;;5101651;27;20229;-68
2024/01/02 08:23:39;;;;;;;14.60;9.83;;;7.10;53.00;;;;;;5109393;27;20229;-68
2024/01/02 08:26:14;;;;;;;14.17;10.60;;;7.20;53.00;;;;;;5126862;27;20252;-68
2024/01/02 08:28:43;;;;;;;16.87;10.40;;;7.20;53.80;;;;;;5124539;27;20217;-68
2024/01/02 08:31:11;;;;;;;15.18;10.90;;;7.30;52.90;;;;;;5125015;27;20270;-67
2024/01/02 08:33:40;;;;;;;18.73;11.32;;;7.30;53.30;;;;;;5124059;27;20224;-68
2024/01/02 08:36:11;;;;;;;18.93;11.47;;;7.30;53.00;;;;;;5122714;27;20413;-68
2024/01/02 08:38:41;;;;;;;14.50;11.53;;;7.30;52.90;;;;;;5107051;27;20221;-66
2024/01/02 08:41:11;;;;;;;19.93;13.63;;;7.30;52.10;;;;;;5108594;27;20233;-67
2024/01/02 08:43:41;;;;;;;18.47;11.83;;;7.30;52.10;;;;;;5119925;27;20251;-67
2024/01/02 08:46:09;;;;;;;17.60;12.30;;;7.40;52.70;;;;;;5104989;27;20226;-66
2024/01/02 08:48:38;;;;;;;16.60;12.07;;;7.30;52.30;;;;;;5117998;27;20286;-68
2024/01/02 08:51:06;;;;;;;19.63;12.20;;;7.30;52.00;;;;;;5128330;27;20221;-68
2024/01/02 08:53:35;;;;;;;22.17;13.43;;;7.30;52.80;;;;;;5104770;27;20221;-67
2024/01/02 08:56:04;;;;;;;21.03;13.03;;;7.30;51.60;;;;;;5126389;27;20275;-66
2024/01/02 08:58:33;;;;;;;18.17;13.30;;;7.40;51.90;;;;;;5127258;27;20810;-67
2024/01/02 09:01:03;;;;;;;25.55;14.18;;;7.40;52.50;;;;;;5101283;27;20321;-67
2024/01/02 09:03:31;;;;;;;20.43;14.37;;;7.40;52.40;;;;;;5122145;27;20223;-67
2024/01/02 09:06:00;;;;;;;20.37;13.57;;;7.40;51.80;;;;;;5101400;27;20326;-69
2024/01/02 09:08:29;;;;;;;19.90;14.33;;;7.40;51.90;;;;;;5121109;27;20253;-66
2024/01/02 09:10:58;;;;;;;24.57;16.70;;;7.50;52.50;;;;;;5125074;27;20325;-68
2024/01/02 09:13:26;;;;;;;23.67;16.50;;;7.40;52.70;;;;;;5110344;27;20226;-67
2024/01/02 09:15:55;;;;;;;23.00;15.47;;;7.40;52.30;;;;;;5099765;27;20329;-66
2024/01/02 09:18:26;;;;;;;24.07;16.03;;;7.40;52.50;;;;;;5110083;27;20228;-67
2024/01/02 09:20:55;;;;;;;20.97;15.43;;;7.50;50.70;;;;;;5129044;27;20237;-67
2024/01/02 09:23:24;;;;;;;21.60;15.90;;;7.50;52.10;;;;;;5127881;27;20278;-66
2024/01/02 09:25:58;;;;;;;23.27;16.00;;;7.50;51.90;;;;;;5121527;27;20250;-67
2024/01/02 09:28:28;;;;;;;25.05;16.42;;;7.50;51.60;;;;;;5120915;27;20230;-67
2024/01/02 09:30:56;;;;;;;22.60;16.83;;;7.60;53.00;;;;;;5110685;27;20218;-66
2024/01/02 09:33:27;;;;;;;24.47;17.47;;;7.60;52.00;;;;;;5129586;27;20254;-67
2024/01/02 09:35:55;;;;;;;21.58;16.52;;;7.60;50.60;;;;;;5113788;27;20218;-66
2024/01/02 09:38:24;;;;;;;23.20;17.48;;;7.70;50.80;;;;;;5104916;27;20234;-68
2024/01/02 09:41:07;;;;;;;23.43;17.60;;;7.70;50.70;;;;;;5097482;27;20237;-68
2024/01/02 09:43:47;;;;;;;25.70;17.63;;;7.70;50.30;;;;;;5124727;27;20217;-68
2024/01/02 09:46:27;;;;;;;22.30;17.50;;;7.70;50.70;;;;;;5106103;27;20509;-69
2024/01/02 09:49:11;;;;;;;27.30;17.70;;;7.80;50.30;;;;;;5120237;27;20222;-66
2024/01/02 09:51:51;;;;;;;26.40;19.10;;;7.90;49.80;;;;;;5124593;27;20300;-68
2024/01/02 09:54:32;;;;;;;25.50;18.77;;;7.90;48.40;;;;;;5124972;27;20229;-67
2024/01/02 09:57:10;;;;;;;22.02;17.83;;;7.90;50.40;;;;;;5121382;27;20222;-67
2024/01/02 09:59:50;;;;;;;26.17;18.77;;;7.90;49.80;;;;;;5105785;27;20709;-67
2024/01/02 10:02:42;;;;;;;28.00;18.33;;;7.70;50.20;;;;;;5106944;27;20225;-67
2024/01/02 10:05:20;;;;;;;28.27;20.92;;;7.80;49.60;;;;;;5055257;27;20409;-68
2024/01/02 10:08:13;;;;;;;25.98;17.10;;;7.80;50.60;;;;;;5126620;27;20226;-67
2024/01/02 10:10:51;;;;;;;25.17;18.50;;;7.80;49.70;;;;;;5120665;27;20221;-66
2024/01/02 10:13:24;;;;;;;26.02;19.08;;;7.90;61.40;;;;;;5096378;27;20221;-67
2024/01/02 10:16:09;;;;;;;23.45;17.70;;;7.90;50.50;;;;;;5124068;27;20226;-68
2024/01/02 10:18:53;;;;;;;26.63;18.23;;;7.90;50.80;;;;;;5107793;27;20217;-68
2024/01/02 10:21:29;;;;;;;31.33;19.63;;;7.90;49.30;;;;;;5105269;27;20245;-68
2024/01/02 10:24:11;;;;;;;25.63;17.00;;;7.90;49.60;;;;;;5125860;27;20222;-67
2024/01/02 10:26:47;;;;;;;23.17;16.40;;;7.90;49.50;;;;;;5127686;27;20218;-67
2024/01/02 10:29:24;;;;;;;22.17;16.13;;;7.90;49.10;;;;;;5121588;27;20215;-67
2024/01/02 10:32:04;;;;;;;26.38;19.08;;;7.90;50.10;;;;;;5118733;27;20218;-68
2024/01/02 10:34:37;;;;;;;31.83;21.48;;;7.90;49.60;;;;;;5120867;27;20225;-68
2024/01/02 10:37:08;;;;;;;25.42;18.02;;;7.90;50.20;;;;;;5115320;27;20237;-68
2024/01/02 10:39:44;;;;;;;22.35;17.48;;;7.90;50.80;;;;;;5106675;27;20276;-66
2024/01/02 10:42:28;;;;;;;23.33;16.27;;;7.80;51.40;;;;;;5121266;27;20320;-66
2024/01/02 10:45:11;;;;;;;23.20;16.77;;;7.80;51.10;;;;;;5119779;27;20238;-67
2024/01/02 10:47:53;;;;;;;25.00;17.90;;;7.90;52.60;;;;;;5096838;27;20240;-67
2024/01/02 10:50:31;;;;;;;22.88;17.50;;;7.90;50.20;;;;;;5124090;27;20703;-67
2024/01/02 10:53:15;;;;;;;23.70;17.33;;;7.80;49.70;;;;;;5125114;27;20282;-68
2024/01/02 10:55:49;;;;;;;25.95;17.02;;;7.90;49.80;;;;;;5105661;27;20222;-66
2024/01/02 10:58:23;;;;;;;25.27;18.40;;;7.80;49.90;;;;;;5115974;27;20867;-66
2024/01/02 11:01:00;;;;;;;25.10;18.85;;;7.80;51.30;;;;;;5115263;27;20222;-66
2024/01/02 11:03:31;;;;;;;22.35;16.63;;;7.90;50.80;;;;;;5118698;27;20278;-68
2024/01/02 11:06:07;;;;;;;27.77;17.77;;;7.90;49.30;;;;;;5097495;27;20218;-68
2024/01/02 11:09:03;;;;;;;24.90;17.75;;;7.90;49.10;;;;;;5121049;27;20259;-68
2024/01/02 11:11:37;;;;;;;24.45;18.00;;;7.90;49.50;;;;;;5120228;27;20762;-67
2024/01/02 11:14:07;;;;;;;26.67;16.77;;;7.90;61.00;;;;;;5115848;27;20605;-67
2024/01/02 11:16:42;;;;;;;23.67;17.23;;;8.00;49.10;;;;;;5113148;27;20298;-69
2024/01/02 11:19:14;;;;;;;21.30;16.20;;;7.90;49.70;;;;;;5117824;27;20226;-68
2024/01/02 11:21:52;;;;;;;24.85;15.95;;;7.70;49.80;;;;;;5102163;27;20226;-67
2024/01/02 11:24:24;;;;;;;22.60;15.98;;;7.80;50.30;;;;;;5110999;27;20226;-67
2024/01/02 11:26:56;;;;;;;21.37;15.60;;;7.80;50.60;;;;;;5095676;27;20218;-67
2024/01/02 11:29:35;;;;;;;20.70;14.97;;;7.70;50.90;;;;;;5117393;27;20213;-66
2024/01/02 11:32:10;;;;;;;18.30;14.73;;;7.70;51.00;;;;;;5109521;27;20226;-65
2024/01/02 11:34:50;;;;;;;20.65;15.10;;;7.70;50.70;;;;;;5104166;27;20219;-67
2024/01/02 11:37:31;;;;;;;19.67;15.32;;;7.70;51.10;;;;;;5099821;28;20640;-67
2024/01/02 11:40:14;;;;;;;21.13;14.65;;;7.80;51.70;;;;;;5093764;28;20302;-66
2024/01/02 11:42:53;;;;;;;23.50;15.55;;;7.90;50.00;;;;;;5113912;27;20297;-66
2024/01/02 11:45:24;;;;;;;17.92;14.32;;;7.90;50.60;;;;;;5096672;28;20300;-65
2024/01/02 11:48:07;;;;;;;18.27;13.80;;;7.80;50.20;;;;;;5117789;27;20566;-66
2024/01/02 11:50:47;;;;;;;17.33;13.70;;;7.80;49.70;;;;;;5115827;27;20268;-66
2024/01/02 11:53:29;;;;;;;21.75;13.80;;;7.80;60.40;;;;;;5121325;27;20338;-66
2024/01/02 11:56:05;;;;;;;18.98;13.43;;;7.90;49.30;;;;;;5119438;27;20237;-65
2024/01/02 11:58:41;;;;;;;19.90;14.35;;;7.90;49.30;;;;;;5112726;27;20305;-67
2024/01/02 12:01:17;;;;;;;17.27;13.30;;;7.90;49.70;;;;;;5091935;28;20321;-67
2024/01/02 12:04:10;;;;;;;19.33;13.98;;;7.80;49.90;;;;;;5119184;27;20214;-67
2024/01/02 12:06:49;;;;;;;21.75;14.23;;;7.80;49.60;;;;;;5128696;27;20244;-66
2024/01/02 12:09:19;;;;;;;21.00;15.25;;;7.80;50.20;;;;;;5110205;27;20233;-67
2024/01/02 12:11:57;;;;;;;18.88;14.52;;;7.90;50.30;;;;;;5131362;27;20230;-69
2024/01/02 12:14:36;;;;;;;20.35;14.45;;;7.90;50.40;;;;;;5119691;28;20245;-67
2024/01/02 12:17:08;;;;;;;19.92;15.15;;;8.00;50.50;;;;;;5101265;28;20253;-69
2024/01/02 12:19:58;;;;;;;20.67;14.05;;;8.00;49.30;;;;;;5119692;28;20301;-68
2024/01/02 12:22:28;;;;;;;20.73;14.77;;;8.00;48.70;;;;;;5118471;27;20240;-69
2024/01/02 12:24:58;;;;;;;19.60;14.10;;;8.00;48.30;;;;;;5102766;28;20860;-66
2024/01/02 12:27:30;;;;;;;19.67;14.07;;;7.90;49.00;;;;;;5113597;28;20324;-66
2024/01/02 12:30:04;;;;;;;22.23;15.65;;;7.90;49.70;;;;;;5112269;28;20221;-68
2024/01/02 12:32:59;;;;;;;17.15;14.15;;;7.80;49.70;;;;;;5113494;28;20234;-67
2024/01/02 12:35:31;;;;;;;19.67;14.35;;;7.90;49.70;;;;;;5086662;28;20218;-67
2024/01/02 12:38:14;;;;;;;17.98;13.80;;;7.90;49.00;;;;;;5115464;27;20224;-68
2024/01/02 12:40:47;;;;;;;24.80;14.52;;;8.00;48.90;;;;;;5119140;28;20309;-66
2024/01/02 12:43:20;;;;;;;18.83;13.70;;;7.90;48.40;;;;;;5114377;27;20218;-68
2024/01/02 12:45:55;;;;;;;18.75;13.93;;;8.00;48.40;;;;;;5108361;27;20290;-68
2024/01/02 12:48:25;;;;;;;17.33;13.75;;;8.00;48.50;;;;;;5099163;27;20232;-68
2024/01/02 12:50:55;;;;;;;19.95;13.73;;;8.00;48.30;;;;;;5114127;27;20257;-68
2024/01/02 12:53:33;;;;;;;20.25;14.02;;;8.00;48.20;;;;;;5094150;28;20225;-68
2024/01/02 12:56:04;;;;;;;17.38;13.57;;;8.00;48.80;;;;;;5111200;27;20225;-71
2024/01/02 12:58:34;;;;;;;18.60;14.02;;;8.00;49.00;;;;;;5117621;27;20895;-68